TAR135 OTHH-OERK
Flight info
| Callsign | TAR135 |
|---|---|
| Flight time | 1h 4m |
| Altitude | 35000 |
| Route | ULIKA M430 KOBOX |
| Aircraft | A20N/M-SDE2E3FGHIRWXY/LB1 |
Departure
| Time | 2026-05-06 22:52 |
|---|---|
| Airport | Hamad International Airport (OTHH) |
Arrival
| Time | 2026-05-06 23:57 |
|---|---|
| Airport | King Khalid International Airport (OERK) |
| Time | Latitude | Longitude | Altitude | Speed | Heading |
|---|---|---|---|---|---|
| 2026-05-06 22:27 | 25.26142 | 51.61132 | 9 ft | 0 kts | 156° |
| 2026-05-06 22:38 | 25.26143 | 51.61132 | 9 ft | 1 kts | 158° |
| 2026-05-06 22:38 | 25.26154 | 51.61124 | 9 ft | 2 kts | 142° |
| 2026-05-06 22:38 | 25.26165 | 51.61116 | 9 ft | 1 kts | 148° |
| 2026-05-06 22:39 | 25.26176 | 51.61108 | 9 ft | 2 kts | 146° |
| 2026-05-06 22:39 | 25.26187 | 51.61100 | 9 ft | 2 kts | 147° |
| 2026-05-06 22:39 | 25.26200 | 51.61091 | 9 ft | 2 kts | 147° |
| 2026-05-06 22:39 | 25.26217 | 51.61078 | 9 ft | 2 kts | 147° |
| 2026-05-06 22:40 | 25.26230 | 51.61069 | 9 ft | 2 kts | 147° |
| 2026-05-06 22:40 | 25.26236 | 51.61064 | 9 ft | 0 kts | 157° |
| 2026-05-06 22:40 | 25.26240 | 51.61063 | 9 ft | 0 kts | 209° |
| 2026-05-06 22:40 | 25.26245 | 51.61067 | 9 ft | 0 kts | 212° |
| 2026-05-06 22:43 | 25.26242 | 51.61064 | 9 ft | 1 kts | 214° |
| 2026-05-06 22:43 | 25.26228 | 51.61051 | 9 ft | 3 kts | 233° |
| 2026-05-06 22:43 | 25.26214 | 51.61021 | 9 ft | 5 kts | 246° |
| 2026-05-06 22:43 | 25.26200 | 51.60984 | 9 ft | 0 kts | 248° |
| 2026-05-06 22:45 | 25.26201 | 51.60982 | 9 ft | 0 kts | 277° |
| 2026-05-06 22:45 | 25.26204 | 51.60979 | 9 ft | 0 kts | 332° |
| 2026-05-06 22:45 | 25.26208 | 51.60981 | 9 ft | 0 kts | 32° |
| 2026-05-06 22:45 | 25.26210 | 51.60994 | 9 ft | 3 kts | 81° |
| 2026-05-06 22:46 | 25.26219 | 51.61033 | 9 ft | 6 kts | 68° |
| 2026-05-06 22:46 | 25.26262 | 51.61070 | 9 ft | 9 kts | 10° |
| 2026-05-06 22:46 | 25.26335 | 51.61047 | 9 ft | 12 kts | 338° |
| 2026-05-06 22:46 | 25.26425 | 51.61008 | 9 ft | 15 kts | 339° |
| 2026-05-06 22:47 | 25.26527 | 51.60963 | 10 ft | 16 kts | 337° |
| 2026-05-06 22:47 | 25.26599 | 51.60876 | 13 ft | 15 kts | 295° |
| 2026-05-06 22:47 | 25.26644 | 51.60764 | 15 ft | 16 kts | 295° |
| 2026-05-06 22:47 | 25.26690 | 51.60638 | 16 ft | 18 kts | 287° |
| 2026-05-06 22:48 | 25.26654 | 51.60511 | 18 ft | 18 kts | 245° |
| 2026-05-06 22:48 | 25.26584 | 51.60398 | 18 ft | 18 kts | 177° |
| 2026-05-06 22:48 | 25.26475 | 51.60342 | 18 ft | 19 kts | 203° |
| 2026-05-06 22:48 | 25.26363 | 51.60392 | 17 ft | 19 kts | 170° |
| 2026-05-06 22:49 | 25.26231 | 51.60441 | 16 ft | 20 kts | 158° |
| 2026-05-06 22:49 | 25.26103 | 51.60497 | 15 ft | 20 kts | 158° |
| 2026-05-06 22:49 | 25.25967 | 51.60558 | 14 ft | 22 kts | 159° |
| 2026-05-06 22:49 | 25.25815 | 51.60624 | 13 ft | 24 kts | 158° |
| 2026-05-06 22:50 | 25.25674 | 51.60686 | 12 ft | 19 kts | 159° |
| 2026-05-06 22:50 | 25.25592 | 51.60646 | 13 ft | 15 kts | 248° |
| 2026-05-06 22:50 | 25.25590 | 51.60549 | 14 ft | 11 kts | 293° |
| 2026-05-06 22:50 | 25.25624 | 51.60507 | 15 ft | 7 kts | 336° |
| 2026-05-06 22:51 | 25.25642 | 51.60498 | 15 ft | 0 kts | 335° |
| 2026-05-06 22:51 | 25.25646 | 51.60496 | 15 ft | 3 kts | 339° |
| 2026-05-06 22:51 | 25.25699 | 51.60473 | 15 ft | 13 kts | 338° |
| 2026-05-06 22:51 | 25.25976 | 51.60350 | 16 ft | 79 kts | 336° |
| 2026-05-06 22:52 | 25.26710 | 51.60027 | 20 ft | 142 kts | 338° |
| 2026-05-06 22:52 | 25.27699 | 51.59589 | 434 ft | 157 kts | 338° |
| 2026-05-06 22:52 | 25.28367 | 51.59300 | 848 ft | 159 kts | 339° |
| 2026-05-06 22:52 | 25.29666 | 51.58683 | 1908 ft | 149 kts | 336° |
| 2026-05-06 22:53 | 25.30546 | 51.58141 | 2464 ft | 150 kts | 323° |
| 2026-05-06 22:53 | 25.31365 | 51.57318 | 2807 ft | 168 kts | 318° |
| 2026-05-06 22:53 | 25.32255 | 51.56367 | 3184 ft | 188 kts | 318° |
| 2026-05-06 22:53 | 25.33225 | 51.55336 | 3695 ft | 201 kts | 319° |
| 2026-05-06 22:54 | 25.34243 | 51.54259 | 4304 ft | 210 kts | 319° |
| 2026-05-06 22:54 | 25.34964 | 51.53501 | 4748 ft | 215 kts | 321° |
| 2026-05-06 22:54 | 25.36664 | 51.52236 | 5452 ft | 234 kts | 332° |
| 2026-05-06 22:54 | 25.38115 | 51.51310 | 6063 ft | 247 kts | 331° |
| 2026-05-06 22:55 | 25.39081 | 51.50583 | 6423 ft | 259 kts | 319° |
| 2026-05-06 22:55 | 25.40250 | 51.48170 | 6809 ft | 286 kts | 277° |
| 2026-05-06 22:55 | 25.40292 | 51.46682 | 6830 ft | 289 kts | 268° |
| 2026-05-06 22:55 | 25.40027 | 51.43725 | 6831 ft | 289 kts | 264° |
| 2026-05-06 22:56 | 25.39803 | 51.41534 | 6830 ft | 289 kts | 264° |
| 2026-05-06 22:56 | 25.39611 | 51.39318 | 6830 ft | 289 kts | 265° |
| 2026-05-06 22:56 | 25.39501 | 51.37858 | 6830 ft | 289 kts | 266° |
| 2026-05-06 22:56 | 25.39303 | 51.34906 | 6829 ft | 289 kts | 266° |
| 2026-05-06 22:57 | 25.39163 | 51.32663 | 6829 ft | 289 kts | 266° |
| 2026-05-06 22:57 | 25.39028 | 51.30446 | 6829 ft | 289 kts | 266° |
| 2026-05-06 22:57 | 25.38894 | 51.28232 | 6829 ft | 289 kts | 266° |
| 2026-05-06 22:57 | 25.38760 | 51.26023 | 6829 ft | 289 kts | 267° |
| 2026-05-06 22:58 | 25.38696 | 51.23806 | 6830 ft | 289 kts | 269° |
| 2026-05-06 22:58 | 25.38673 | 51.21583 | 6829 ft | 289 kts | 270° |
| 2026-05-06 22:58 | 25.38656 | 51.19375 | 6829 ft | 289 kts | 270° |
| 2026-05-06 22:58 | 25.38636 | 51.17155 | 6829 ft | 289 kts | 270° |
| 2026-05-06 22:59 | 25.38613 | 51.14934 | 6829 ft | 289 kts | 270° |
| 2026-05-06 22:59 | 25.38590 | 51.12716 | 6829 ft | 289 kts | 270° |
| 2026-05-06 22:59 | 25.38565 | 51.10473 | 6829 ft | 289 kts | 270° |
| 2026-05-06 22:59 | 25.38538 | 51.08251 | 6830 ft | 288 kts | 270° |
| 2026-05-06 23:00 | 25.38511 | 51.06036 | 6830 ft | 288 kts | 270° |
| 2026-05-06 23:00 | 25.38484 | 51.03846 | 6830 ft | 287 kts | 270° |
| 2026-05-06 23:00 | 25.38457 | 51.01611 | 6926 ft | 292 kts | 270° |
| 2026-05-06 23:00 | 25.38430 | 50.99364 | 7652 ft | 297 kts | 270° |
| 2026-05-06 23:01 | 25.38402 | 50.97106 | 8712 ft | 294 kts | 270° |
| 2026-05-06 23:01 | 25.38374 | 50.94843 | 9603 ft | 297 kts | 270° |
| 2026-05-06 23:01 | 25.38345 | 50.92563 | 10411 ft | 303 kts | 270° |
| 2026-05-06 23:01 | 25.38294 | 50.90183 | 10900 ft | 320 kts | 267° |
| 2026-05-06 23:02 | 25.38128 | 50.88526 | 11175 ft | 333 kts | 262° |
| 2026-05-06 23:02 | 25.37305 | 50.85117 | 11831 ft | 354 kts | 252° |
| 2026-05-06 23:02 | 25.36469 | 50.82572 | 12611 ft | 358 kts | 251° |
| 2026-05-06 23:02 | 25.35587 | 50.79973 | 13421 ft | 362 kts | 251° |
| 2026-05-06 23:03 | 25.35006 | 50.78259 | 13933 ft | 364 kts | 251° |
| 2026-05-06 23:03 | 25.33832 | 50.74767 | 14957 ft | 369 kts | 252° |
| 2026-05-06 23:03 | 25.32943 | 50.72101 | 15723 ft | 372 kts | 252° |
| 2026-05-06 23:03 | 25.32050 | 50.69415 | 16479 ft | 375 kts | 252° |
| 2026-05-06 23:04 | 25.31142 | 50.66682 | 17229 ft | 378 kts | 252° |
| 2026-05-06 23:04 | 25.30238 | 50.63957 | 17956 ft | 381 kts | 252° |
| 2026-05-06 23:04 | 25.29328 | 50.61219 | 18668 ft | 383 kts | 253° |
| 2026-05-06 23:04 | 25.28416 | 50.58475 | 19362 ft | 385 kts | 253° |
| 2026-05-06 23:05 | 25.27492 | 50.55697 | 20048 ft | 387 kts | 253° |
| 2026-05-06 23:05 | 25.26683 | 50.52848 | 20718 ft | 387 kts | 259° |
| 2026-05-06 23:05 | 25.26228 | 50.49939 | 21376 ft | 386 kts | 267° |
| 2026-05-06 23:05 | 25.26123 | 50.47002 | 22020 ft | 386 kts | 273° |
| 2026-05-06 23:06 | 25.26176 | 50.44045 | 22656 ft | 387 kts | 274° |
| 2026-05-06 23:06 | 25.26251 | 50.41079 | 23259 ft | 389 kts | 274° |
| 2026-05-06 23:06 | 25.26302 | 50.39074 | 23655 ft | 390 kts | 274° |
| 2026-05-06 23:06 | 25.26397 | 50.35086 | 24415 ft | 392 kts | 273° |
| 2026-05-06 23:07 | 25.26464 | 50.32074 | 24969 ft | 394 kts | 273° |
| 2026-05-06 23:07 | 25.26527 | 50.29066 | 25499 ft | 396 kts | 272° |
| 2026-05-06 23:07 | 25.26590 | 50.25999 | 26016 ft | 398 kts | 272° |
| 2026-05-06 23:07 | 25.26651 | 50.22973 | 26478 ft | 400 kts | 272° |
| 2026-05-06 23:08 | 25.26713 | 50.19864 | 26799 ft | 406 kts | 272° |
| 2026-05-06 23:08 | 25.26773 | 50.16772 | 27181 ft | 409 kts | 272° |
| 2026-05-06 23:08 | 25.26833 | 50.13631 | 27721 ft | 408 kts | 271° |
| 2026-05-06 23:08 | 25.26893 | 50.10503 | 28370 ft | 404 kts | 271° |
| 2026-05-06 23:09 | 25.26951 | 50.07457 | 28987 ft | 401 kts | 271° |
| 2026-05-06 23:09 | 25.27008 | 50.04393 | 29569 ft | 398 kts | 271° |
| 2026-05-06 23:09 | 25.27064 | 50.01333 | 30123 ft | 396 kts | 270° |
| 2026-05-06 23:09 | 25.27118 | 49.98342 | 30650 ft | 394 kts | 270° |
| 2026-05-06 23:10 | 25.27172 | 49.95344 | 31164 ft | 392 kts | 270° |
| 2026-05-06 23:10 | 25.27224 | 49.92348 | 31660 ft | 390 kts | 269° |
| 2026-05-06 23:10 | 25.27276 | 49.89352 | 32131 ft | 389 kts | 269° |
| 2026-05-06 23:10 | 25.27327 | 49.86406 | 32570 ft | 387 kts | 269° |
| 2026-05-06 23:11 | 25.27378 | 49.83424 | 32998 ft | 386 kts | 269° |
| 2026-05-06 23:11 | 25.27427 | 49.80468 | 33383 ft | 386 kts | 268° |
| 2026-05-06 23:11 | 25.27459 | 49.78515 | 33597 ft | 386 kts | 268° |
| 2026-05-06 23:11 | 25.27523 | 49.74564 | 33975 ft | 388 kts | 268° |
| 2026-05-06 23:12 | 25.27554 | 49.72559 | 34160 ft | 389 kts | 268° |
| 2026-05-06 23:12 | 25.27615 | 49.68580 | 34524 ft | 390 kts | 268° |
| 2026-05-06 23:12 | 25.27660 | 49.65612 | 34783 ft | 391 kts | 268° |
| 2026-05-06 23:13 | 25.27751 | 49.59608 | 34876 ft | 393 kts | 268° |
| 2026-05-06 23:13 | 25.27826 | 49.54592 | 34882 ft | 393 kts | 268° |
| 2026-05-06 23:14 | 25.27786 | 49.47538 | 34883 ft | 391 kts | 264° |
| 2026-05-06 23:14 | 25.27571 | 49.44601 | 34876 ft | 379 kts | 262° |
| 2026-05-06 23:14 | 25.27321 | 49.41759 | 34873 ft | 363 kts | 262° |
| 2026-05-06 23:14 | 25.27080 | 49.39056 | 34871 ft | 348 kts | 262° |
| 2026-05-06 23:15 | 25.26846 | 49.36453 | 34870 ft | 333 kts | 262° |
| 2026-05-06 23:15 | 25.26393 | 49.31470 | 34881 ft | 326 kts | 261° |
| 2026-05-06 23:16 | 25.25937 | 49.26466 | 34883 ft | 326 kts | 261° |
| 2026-05-06 23:16 | 25.25481 | 49.21487 | 34883 ft | 326 kts | 261° |
| 2026-05-06 23:17 | 25.25027 | 49.16542 | 34884 ft | 326 kts | 261° |
| 2026-05-06 23:17 | 25.24573 | 49.11584 | 34884 ft | 325 kts | 261° |
| 2026-05-06 23:18 | 25.24120 | 49.06654 | 34884 ft | 324 kts | 261° |
| 2026-05-06 23:18 | 25.23664 | 49.01735 | 34884 ft | 322 kts | 261° |
| 2026-05-06 23:19 | 25.23208 | 48.96839 | 34884 ft | 321 kts | 260° |
| 2026-05-06 23:19 | 25.22745 | 48.91917 | 34884 ft | 320 kts | 261° |
| 2026-05-06 23:20 | 25.22286 | 48.87051 | 34884 ft | 320 kts | 260° |
| 2026-05-06 23:20 | 25.21822 | 48.82146 | 34884 ft | 321 kts | 261° |
| 2026-05-06 23:21 | 25.21359 | 48.77272 | 34884 ft | 321 kts | 260° |
| 2026-05-06 23:21 | 25.20893 | 48.72395 | 34884 ft | 320 kts | 261° |
| 2026-05-06 23:22 | 25.20427 | 48.67521 | 34884 ft | 320 kts | 261° |
| 2026-05-06 23:22 | 25.20488 | 48.62565 | 34877 ft | 327 kts | 273° |
| 2026-05-06 23:23 | 25.21654 | 48.57643 | 34867 ft | 336 kts | 285° |
| 2026-05-06 23:23 | 25.23603 | 48.52960 | 34633 ft | 333 kts | 288° |
| 2026-05-06 23:23 | 25.24590 | 48.50672 | 34202 ft | 331 kts | 288° |
| 2026-05-06 23:24 | 25.25563 | 48.48414 | 34067 ft | 331 kts | 288° |
| 2026-05-06 23:24 | 25.26557 | 48.46097 | 33916 ft | 332 kts | 288° |
| 2026-05-06 23:24 | 25.27546 | 48.43793 | 33766 ft | 332 kts | 288° |
| 2026-05-06 23:24 | 25.28535 | 48.41490 | 33616 ft | 333 kts | 288° |
| 2026-05-06 23:25 | 25.29527 | 48.39179 | 33375 ft | 334 kts | 288° |
| 2026-05-06 23:25 | 25.30515 | 48.36872 | 32928 ft | 334 kts | 288° |
| 2026-05-06 23:25 | 25.31506 | 48.34562 | 32477 ft | 333 kts | 287° |
| 2026-05-06 23:25 | 25.32492 | 48.32250 | 32026 ft | 333 kts | 287° |
| 2026-05-06 23:26 | 25.33470 | 48.29954 | 31576 ft | 333 kts | 287° |
| 2026-05-06 23:26 | 25.34451 | 48.27651 | 31124 ft | 333 kts | 287° |
| 2026-05-06 23:26 | 25.35445 | 48.25315 | 30669 ft | 334 kts | 287° |
| 2026-05-06 23:26 | 25.36438 | 48.22987 | 30216 ft | 335 kts | 287° |
| 2026-05-06 23:27 | 25.37426 | 48.20667 | 29765 ft | 336 kts | 287° |
| 2026-05-06 23:27 | 25.38417 | 48.18340 | 29312 ft | 336 kts | 287° |
| 2026-05-06 23:27 | 25.39409 | 48.16009 | 28863 ft | 337 kts | 287° |
| 2026-05-06 23:27 | 25.40397 | 48.13688 | 28415 ft | 338 kts | 287° |
| 2026-05-06 23:28 | 25.41403 | 48.11324 | 27960 ft | 338 kts | 288° |
| 2026-05-06 23:28 | 25.42395 | 48.08991 | 27512 ft | 339 kts | 288° |
| 2026-05-06 23:28 | 25.43407 | 48.06611 | 27055 ft | 339 kts | 288° |
| 2026-05-06 23:28 | 25.44408 | 48.04256 | 26604 ft | 340 kts | 288° |
| 2026-05-06 23:29 | 25.45397 | 48.01927 | 26159 ft | 340 kts | 288° |
| 2026-05-06 23:29 | 25.46413 | 47.99534 | 25704 ft | 341 kts | 289° |
| 2026-05-06 23:29 | 25.47410 | 47.97183 | 25240 ft | 342 kts | 289° |
| 2026-05-06 23:29 | 25.48424 | 47.94790 | 24738 ft | 345 kts | 289° |
| 2026-05-06 23:30 | 25.49443 | 47.92382 | 24238 ft | 348 kts | 290° |
| 2026-05-06 23:30 | 25.50477 | 47.89940 | 23734 ft | 350 kts | 290° |
| 2026-05-06 23:30 | 25.51504 | 47.87514 | 23238 ft | 352 kts | 291° |
| 2026-05-06 23:30 | 25.52547 | 47.85050 | 22738 ft | 355 kts | 291° |
| 2026-05-06 23:31 | 25.53590 | 47.82586 | 22240 ft | 357 kts | 292° |
| 2026-05-06 23:31 | 25.54638 | 47.80109 | 21744 ft | 359 kts | 292° |
| 2026-05-06 23:31 | 25.55691 | 47.77619 | 21247 ft | 361 kts | 292° |
| 2026-05-06 23:31 | 25.56755 | 47.75101 | 20748 ft | 362 kts | 293° |
| 2026-05-06 23:32 | 25.57833 | 47.72549 | 20243 ft | 364 kts | 294° |
| 2026-05-06 23:32 | 25.58901 | 47.70017 | 19745 ft | 365 kts | 294° |
| 2026-05-06 23:32 | 25.59971 | 47.67481 | 19248 ft | 366 kts | 294° |
| 2026-05-06 23:32 | 25.61045 | 47.64934 | 18749 ft | 367 kts | 295° |
| 2026-05-06 23:33 | 25.62123 | 47.62377 | 18250 ft | 367 kts | 295° |
| 2026-05-06 23:33 | 25.63198 | 47.59825 | 17752 ft | 367 kts | 295° |
| 2026-05-06 23:33 | 25.64274 | 47.57268 | 17252 ft | 367 kts | 295° |
| 2026-05-06 23:33 | 25.65357 | 47.54694 | 16751 ft | 367 kts | 296° |
| 2026-05-06 23:34 | 25.66418 | 47.52169 | 16258 ft | 367 kts | 296° |
| 2026-05-06 23:34 | 25.67504 | 47.49583 | 15752 ft | 366 kts | 296° |
| 2026-05-06 23:34 | 25.68573 | 47.47038 | 15254 ft | 365 kts | 296° |
| 2026-05-06 23:34 | 25.69630 | 47.44518 | 14760 ft | 364 kts | 296° |
| 2026-05-06 23:35 | 25.70703 | 47.41959 | 14256 ft | 363 kts | 296° |
| 2026-05-06 23:35 | 25.71712 | 47.39410 | 13749 ft | 363 kts | 290° |
| 2026-05-06 23:35 | 25.72153 | 47.36686 | 13245 ft | 362 kts | 271° |
| 2026-05-06 23:35 | 25.71817 | 47.33961 | 12744 ft | 361 kts | 252° |
| 2026-05-06 23:36 | 25.70742 | 47.31479 | 12243 ft | 357 kts | 234° |
| 2026-05-06 23:36 | 25.69044 | 47.29483 | 11739 ft | 353 kts | 216° |
| 2026-05-06 23:36 | 25.67028 | 47.28023 | 11254 ft | 350 kts | 209° |
| 2026-05-06 23:36 | 25.64921 | 47.26660 | 10750 ft | 348 kts | 208° |
| 2026-05-06 23:37 | 25.62841 | 47.25324 | 10251 ft | 347 kts | 209° |
| 2026-05-06 23:37 | 25.60786 | 47.23988 | 9754 ft | 345 kts | 209° |
| 2026-05-06 23:37 | 25.58718 | 47.22627 | 9249 ft | 343 kts | 210° |
| 2026-05-06 23:37 | 25.56716 | 47.21298 | 8859 ft | 337 kts | 210° |
| 2026-05-06 23:38 | 25.54754 | 47.19988 | 8672 ft | 326 kts | 210° |
| 2026-05-06 23:38 | 25.52879 | 47.18735 | 8484 ft | 315 kts | 210° |
| 2026-05-06 23:38 | 25.51026 | 47.17494 | 8295 ft | 305 kts | 210° |
| 2026-05-06 23:38 | 25.49286 | 47.16330 | 8118 ft | 296 kts | 210° |
| 2026-05-06 23:39 | 25.47552 | 47.15169 | 7940 ft | 286 kts | 210° |
| 2026-05-06 23:39 | 25.45869 | 47.14043 | 7768 ft | 277 kts | 210° |
| 2026-05-06 23:39 | 25.44247 | 47.12957 | 7599 ft | 269 kts | 210° |
| 2026-05-06 23:39 | 25.42677 | 47.11908 | 7435 ft | 260 kts | 210° |
| 2026-05-06 23:40 | 25.41149 | 47.10886 | 7271 ft | 252 kts | 210° |
| 2026-05-06 23:40 | 25.39664 | 47.09893 | 7032 ft | 248 kts | 210° |
| 2026-05-06 23:40 | 25.38188 | 47.08907 | 6730 ft | 247 kts | 210° |
| 2026-05-06 23:40 | 25.36733 | 47.07936 | 6432 ft | 246 kts | 210° |
| 2026-05-06 23:41 | 25.35280 | 47.06966 | 6136 ft | 245 kts | 210° |
| 2026-05-06 23:41 | 25.33817 | 47.05991 | 5839 ft | 243 kts | 210° |
| 2026-05-06 23:41 | 25.32385 | 47.05035 | 5548 ft | 242 kts | 210° |
| 2026-05-06 23:41 | 25.30951 | 47.04079 | 5256 ft | 241 kts | 211° |
| 2026-05-06 23:42 | 25.29519 | 47.03124 | 4966 ft | 240 kts | 211° |
| 2026-05-06 23:42 | 25.28105 | 47.02182 | 4680 ft | 239 kts | 211° |
| 2026-05-06 23:42 | 25.26683 | 47.01234 | 4392 ft | 237 kts | 211° |
| 2026-05-06 23:42 | 25.25274 | 47.00295 | 4112 ft | 236 kts | 211° |
| 2026-05-06 23:43 | 25.23913 | 46.99350 | 4021 ft | 234 kts | 218° |
| 2026-05-06 23:43 | 25.22770 | 46.98090 | 4001 ft | 226 kts | 235° |
| 2026-05-06 23:43 | 25.22043 | 46.96605 | 3994 ft | 215 kts | 252° |
| 2026-05-06 23:43 | 25.21725 | 46.95021 | 4003 ft | 214 kts | 268° |
| 2026-05-06 23:44 | 25.21798 | 46.93388 | 4005 ft | 212 kts | 283° |
| 2026-05-06 23:44 | 25.22232 | 46.91847 | 4014 ft | 211 kts | 294° |
| 2026-05-06 23:44 | 25.22782 | 46.90368 | 4067 ft | 208 kts | 294° |
| 2026-05-06 23:44 | 25.23302 | 46.88877 | 4034 ft | 211 kts | 291° |
| 2026-05-06 23:45 | 25.23774 | 46.87323 | 4021 ft | 212 kts | 289° |
| 2026-05-06 23:45 | 25.24176 | 46.85760 | 4016 ft | 212 kts | 286° |
| 2026-05-06 23:45 | 25.24513 | 46.84190 | 4013 ft | 212 kts | 283° |
| 2026-05-06 23:45 | 25.24792 | 46.82578 | 4012 ft | 213 kts | 281° |
| 2026-05-06 23:46 | 25.25007 | 46.80970 | 4012 ft | 213 kts | 278° |
| 2026-05-06 23:46 | 25.25163 | 46.79349 | 4011 ft | 213 kts | 276° |
| 2026-05-06 23:46 | 25.25259 | 46.77699 | 4011 ft | 213 kts | 274° |
| 2026-05-06 23:46 | 25.25292 | 46.76078 | 4041 ft | 206 kts | 271° |
| 2026-05-06 23:47 | 25.25269 | 46.74572 | 3999 ft | 189 kts | 269° |
| 2026-05-06 23:47 | 25.25203 | 46.73204 | 3974 ft | 170 kts | 267° |
| 2026-05-06 23:47 | 25.25104 | 46.71934 | 3983 ft | 164 kts | 265° |
| 2026-05-06 23:47 | 25.24972 | 46.70678 | 3999 ft | 164 kts | 264° |
| 2026-05-06 23:48 | 25.24803 | 46.69419 | 4006 ft | 165 kts | 262° |
| 2026-05-06 23:48 | 25.24601 | 46.68177 | 4009 ft | 165 kts | 260° |
| 2026-05-06 23:48 | 25.24363 | 46.66940 | 4010 ft | 165 kts | 258° |
| 2026-05-06 23:48 | 25.24090 | 46.65712 | 4011 ft | 165 kts | 256° |
| 2026-05-06 23:49 | 25.23781 | 46.64489 | 4011 ft | 165 kts | 255° |
| 2026-05-06 23:49 | 25.23438 | 46.63283 | 4011 ft | 165 kts | 253° |
| 2026-05-06 23:49 | 25.23058 | 46.62075 | 4011 ft | 165 kts | 251° |
| 2026-05-06 23:49 | 25.22649 | 46.60899 | 4011 ft | 165 kts | 249° |
| 2026-05-06 23:50 | 25.22199 | 46.59717 | 4011 ft | 165 kts | 246° |
| 2026-05-06 23:50 | 25.20780 | 46.57767 | 4008 ft | 166 kts | 212° |
| 2026-05-06 23:50 | 25.19738 | 46.57283 | 3994 ft | 165 kts | 184° |
| 2026-05-06 23:51 | 25.18599 | 46.57368 | 4013 ft | 163 kts | 165° |
| 2026-05-06 23:51 | 25.17541 | 46.57763 | 4011 ft | 162 kts | 154° |
| 2026-05-06 23:51 | 25.16525 | 46.58317 | 4042 ft | 161 kts | 149° |
| 2026-05-06 23:51 | 25.15550 | 46.58921 | 4021 ft | 161 kts | 148° |
| 2026-05-06 23:52 | 25.14587 | 46.59533 | 4016 ft | 161 kts | 148° |
| 2026-05-06 23:52 | 25.13614 | 46.60151 | 4013 ft | 161 kts | 148° |
| 2026-05-06 23:52 | 25.12632 | 46.60773 | 4012 ft | 161 kts | 148° |
| 2026-05-06 23:52 | 25.11664 | 46.61383 | 4011 ft | 161 kts | 148° |
| 2026-05-06 23:53 | 25.10694 | 46.61993 | 4011 ft | 161 kts | 148° |
| 2026-05-06 23:53 | 25.09721 | 46.62606 | 4011 ft | 161 kts | 148° |
| 2026-05-06 23:53 | 25.08752 | 46.63215 | 4011 ft | 161 kts | 148° |
| 2026-05-06 23:53 | 25.07787 | 46.63823 | 4011 ft | 161 kts | 148° |
| 2026-05-06 23:54 | 25.06814 | 46.64436 | 4010 ft | 161 kts | 148° |
| 2026-05-06 23:54 | 25.05837 | 46.65052 | 3881 ft | 158 kts | 148° |
| 2026-05-06 23:54 | 25.04921 | 46.65630 | 3660 ft | 148 kts | 148° |
| 2026-05-06 23:54 | 25.04038 | 46.66187 | 3474 ft | 147 kts | 148° |
| 2026-05-06 23:55 | 25.03146 | 46.66751 | 3285 ft | 146 kts | 148° |
| 2026-05-06 23:55 | 25.02274 | 46.67302 | 3098 ft | 146 kts | 148° |
| 2026-05-06 23:55 | 25.01396 | 46.67857 | 2905 ft | 146 kts | 148° |
| 2026-05-06 23:55 | 25.00518 | 46.68411 | 2709 ft | 145 kts | 148° |
| 2026-05-06 23:56 | 24.99644 | 46.68964 | 2520 ft | 146 kts | 148° |
| 2026-05-06 23:56 | 24.98771 | 46.69516 | 2313 ft | 145 kts | 148° |
| 2026-05-06 23:56 | 24.97892 | 46.70071 | 2134 ft | 144 kts | 148° |
| 2026-05-06 23:56 | 24.97062 | 46.70606 | 2041 ft | 112 kts | 150° |
| 2026-05-06 23:57 | 24.96645 | 46.70863 | 2036 ft | 26 kts | 153° |
| 2026-05-06 23:57 | 24.96491 | 46.70954 | 2036 ft | 24 kts | 151° |
| 2026-05-06 23:57 | 24.96343 | 46.71046 | 2036 ft | 24 kts | 152° |
| 2026-05-06 23:57 | 24.96185 | 46.71095 | 2036 ft | 23 kts | 171° |
| 2026-05-06 23:58 | 24.96033 | 46.71064 | 2036 ft | 22 kts | 213° |
| 2026-05-06 23:58 | 24.95945 | 46.70927 | 2039 ft | 20 kts | 239° |
| 2026-05-06 23:58 | 24.95876 | 46.70797 | 2043 ft | 18 kts | 241° |
| 2026-05-06 23:58 | 24.95882 | 46.70683 | 2048 ft | 16 kts | 324° |
| 2026-05-06 23:59 | 24.95981 | 46.70619 | 2047 ft | 17 kts | 331° |
| 2026-05-06 23:59 | 24.96090 | 46.70555 | 2048 ft | 17 kts | 332° |
| 2026-05-06 23:59 | 24.96065 | 46.70502 | 2049 ft | 12 kts | 213° |
| 2026-05-06 23:59 | 24.96025 | 46.70422 | 2051 ft | 12 kts | 252° |
| 2026-05-07 00:00 | 24.95977 | 46.70347 | 2052 ft | 12 kts | 193° |
| 2026-05-07 00:00 | 24.95942 | 46.70349 | 2051 ft | 0 kts | 175° |